Aviation Digital Data Service (ADDS)

Output produced by METARs form (1735 UTC 24 June 2019)
found at http://www.aviationweather.gov/metar/data/
 
Forecast for: NLWF (FUTUNA ISL/MAOPO, FJ)
Text: TAF NLWF 241100Z 2412/2512 08015KT 9999 SCT020
Forecast period: 1200 UTC 24 June 2019 to 1200 UTC 25 June 2019
Forecast type: FROM: standard forecast or significant change
Winds: from the E (80 degrees) at 17 MPH (15 knots; 7.7 m/s)
Visibility: 6 or more miles 10+ km)
Ceiling: at least 12,000 feet AGL
Clouds: scattered clouds at 2000 feet AGL
Weather: no significant weather forecast for this period
Text: TEMPO 2412/2424 4000 SHRA BKN014 FEW020CB
Forecast period: 1200 UTC 24 June 2019 to 0000 UTC 25 June 2019
Forecast type: TEMPORARY: The following changes expected for less than half the time period
Visibility: 2.49 miles (4.01 km)
Ceiling: 1400 feet AGL
Clouds: broken clouds at 1400 feet AGL
few clouds at 2000 feet AGL
Weather: SHRA  (rain showers)